• Join FlightAware (Why Join?)
  • Login
  • US Flag 
09:03AM EDT


 

Airport Tracker/Info


-or-


 

Live Flight TrackerFlight Track Log ✈ SWA864 ✈ 14-Sep-2013 ✈ KDEN - KMSP

Flight Track Log - Related Links

Times and Time Zones

All times are in EDT time to prevent confusion due to time zone crossing. See the SWA864 flight status page for this flight to view local times or setup timezone preferences in your user account.

Time Position Orientation Groundspeed Altitude Reporting Facility
EDT Latitude Longitude Course Direction KTS MPH feet Rate Location/Type
12:54PM 39.9333 -104.6833 45° Northeast 220 253 7,700  Level Denver TRACON
12:54PM 40.0000 -104.6333 30° Northeast 254 292 9,700 1,560 Climbing Denver TRACON
12:56PM 40.0833 -104.5667 31° Northeast 329 379 11,100 1,740 Climbing Denver TRACON
12:57PM 40.1736 -104.5031 28° Northeast 349 402 13,700 2,280 Climbing Denver Center
12:58PM 40.2625 -104.4428 27° Northeast 362 417 16,000 2,100 Climbing Denver Center
12:59PM 40.2504 -103.9264 45° Northeast  Level Estimated
12:59PM 40.3650 -104.3761 26° Northeast 381 438 18,100  Level Denver Center
01:00PM 40.4625 -104.3094 27° Northeast 395 455 20,100 1,740 Climbing Denver Center
01:01PM 40.5722 -104.2358 27° Northeast 414 476 21,800 1,740 Climbing Denver Center
01:02PM 40.6581 -104.1306 43° Northeast 421 484 23,700 1,500 Climbing Denver Center
01:03PM 40.7369 -104.0325 43° Northeast 412 474 25,000 1,200 Climbing Denver Center
01:04PM 40.8239 -103.9197 44° Northeast 435 501 26,300 1,380 Climbing Denver Center
01:05PM 40.9317 -103.7811 44° Northeast 450 518 27,900 1,080 Climbing Denver Center
01:06PM 41.0197 -103.6658 45° Northeast 460 529 28,800 960 Climbing Denver Center
01:07PM 41.1408 -103.5092 44° Northeast 476 548 30,100 1,200 Climbing Denver Center
01:08PM 41.2319 -103.3897 45° Northeast 481 554 31,300 1,140 Climbing Denver Center
01:09PM 41.3381 -103.2503 45° Northeast 481 554 32,500 780 Climbing Denver Center
01:10PM 41.4142 -103.1175 53° Northeast 474 545 33,000 240 Climbing Denver Center
01:11PM 41.4889 -102.9469 60° Northeast 477 549 33,000  Level Denver Center
01:12PM 41.5508 -102.8000 61° Northeast 477 549 33,000  Level Denver Center
01:13PM 41.6242 -102.6303 60° Northeast 474 545 33,000  Level Denver Center
01:14PM 41.6906 -102.4783 60° Northeast 474 545 33,000  Level Denver Center
01:16PM 41.7614 -102.3122 60° Northeast 479 551 33,000  Level Denver Center
01:17PM 41.8256 -102.1592 61° Northeast 470 541 33,000  Level Denver Center
01:18PM 41.8897 -102.0103 60° Northeast 480 552 33,000  Level Denver Center
01:19PM 41.9614 -101.8369 61° Northeast 476 548 33,000  Level Denver Center
01:20PM 42.0250 -101.6878 60° Northeast 478 550 33,000  Level Denver Center
01:21PM 42.0967 -101.5144 61° Northeast 477 549 33,000  Level Denver Center
01:22PM 42.1589 -101.3642 61° Northeast 477 549 33,000  Level Denver Center
01:23PM 42.2297 -101.1917 61° Northeast 474 545 33,000  Level Denver Center
01:24PM 42.2900 -101.0414 61° Northeast 474 545 33,000  Level Denver Center
01:25PM 42.3619 -100.8675 61° Northeast 475 547 33,000  Level Denver Center
01:26PM 42.4231 -100.7158 61° Northeast 478 550 33,000  Level Denver Center
01:27PM 42.4933 -100.5408 61° Northeast 475 547 33,000  Level Denver Center
01:28PM 42.5528 -100.3894 62° Northeast 475 547 33,000  Level Denver Center
01:29PM 42.6139 -100.2375 61° Northeast 478 550 33,000  Level Denver Center
01:30PM 42.6825 -100.0614 62° Northeast 474 545 33,000  Level Denver Center
01:31PM 42.7433 -99.9083 62° Northeast 475 547 33,000  Level Denver Center
01:32PM 42.8053 -99.7494 62° Northeast 476 548 33,000  Level Denver Center
01:33PM 42.8672 -99.5906 62° Northeast 475 547 33,000  Level Denver Center
01:34PM 42.9414 -99.4000 62° Northeast 475 547 33,000  Level Denver Center
01:35PM 43.0031 -99.2397 62° Northeast 477 549 33,000  Level Denver Center
01:37PM 43.0881 -99.0189 62° Northeast 477 549 33,000  Level Minneapolis Center
01:38PM 43.1467 -98.8622 63° Northeast 477 549 33,000  Level Minneapolis Center
01:39PM 43.1956 -98.7331 63° Northeast 478 550 33,000  Level Minneapolis Center
01:40PM 43.2800 -98.5069 63° Northeast 477 549 33,000  Level Minneapolis Center
01:41PM 43.3408 -98.3444 63° Northeast 478 550 33,000  Level Minneapolis Center
01:42PM 43.4006 -98.1811 63° Northeast 479 551 33,000  Level Minneapolis Center
01:43PM 43.4606 -98.0172 63° Northeast 480 552 33,000  Level Minneapolis Center
01:44PM 43.5208 -97.8547 63° Northeast 480 552 33,000  Level Minneapolis Center
01:45PM 43.5803 -97.6917 63° Northeast 477 549 33,000  Level Minneapolis Center
01:46PM 43.6500 -97.4975 64° Northeast 473 544 33,000  Level Minneapolis Center
01:47PM 43.7075 -97.3361 64° Northeast 471 542 33,000  Level Minneapolis Center
01:48PM 43.7664 -97.1744 63° Northeast 471 542 33,000  Level Minneapolis Center
01:49PM 43.8228 -97.0128 64° Northeast 469 540 33,000  Level Minneapolis Center
01:50PM 43.8800 -96.8517 64° Northeast 467 537 33,000  Level Minneapolis Center
01:51PM 43.9250 -96.7228 64° Northeast 467 537 33,000  Level Minneapolis Center
01:52PM 44.0031 -96.4978 64° Northeast 466 536 33,000  Level Minneapolis Center
01:53PM 44.0583 -96.3372 64° Northeast 465 535 33,000  Level Minneapolis Center
01:54PM 44.1128 -96.1789 64° Northeast 466 536 33,000  Level Minneapolis Center
01:55PM 44.1794 -95.9869 64° Northeast 474 545 33,000  Level Minneapolis Center
01:56PM 44.2347 -95.8267 64° Northeast 467 537 33,000 -420 Level Minneapolis Center
01:57PM 44.2897 -95.6622 65° Northeast 469 540 32,200 -1,680 Descending Minneapolis Center
01:58PM 44.3444 -95.5000 65° Northeast 466 536 29,600 -2,220 Descending Minneapolis Center
01:59PM 44.3969 -95.3442 65° Northeast 450 518 27,700 -2,040 Descending Minneapolis Center
02:00PM 44.4472 -95.1911 65° Northeast 439 505 25,500 -2,340 Descending Minneapolis Center
02:01PM 44.4989 -95.0050 69° East 432 497 22,900 -2,280 Descending Minneapolis Center
02:02PM 44.5336 -94.8489 73° East 424 488 20,800 -1,800 Descending Minneapolis Center
02:03PM 44.5611 -94.7300 72° East 411 473 19,200 -2,100 Descending Minneapolis Center
02:04PM 44.6058 -94.5414 72° East 398 458 16,500 -2,280 Descending Minneapolis Center
02:06PM 44.6375 -94.3992 73° East 382 440 14,500 -2,040 Descending Minneapolis Center
02:07PM 44.6697 -94.2611 72° East 372 428 12,400 -1,980 Descending Minneapolis Center
02:08PM 44.6992 -94.1303 72° East 351 404 10,500 -1,620 Descending Minneapolis Center
02:09PM 44.7250 -94.0122 73° East 318 366 9,100 -1,200 Descending Minneapolis Center
02:10PM 44.7781 -93.9206 51° Northeast 304 350 7,900 -960 Descending Minneapolis Center
02:11PM 44.8556 -93.8211 42° Northeast 263 303 7,000 -480 Descending Minneapolis Center
02:12PM 44.9164 -93.7772 27° Northeast 248 285 7,000  Level Minneapolis Center
02:13PM 44.9619 -93.7089 47° Northeast 248 285 7,000  Level Minneapolis Center
02:14PM 44.9831 -93.6175 72° East 243 280 7,000 -420 Level Minneapolis Center
02:15PM 44.9628 -93.5417 111° Southeast 217 250 6,200 -1,260 Descending Minneapolis Center
02:16PM 44.9661 -93.4614 87° East 205 236 4,500 -1,200 Descending Minneapolis Center
02:17PM 44.9578 -93.3964 100° East 170 196 3,600 -900 Descending Minneapolis Center
02:18PM 44.9297 -93.3311 121° Southeast 162 186 2,500 -1,020 Descending Minneapolis Center
02:19PM 44.9044 -93.2722 121° Southeast 147 169 1,600 -900 Descending Minneapolis Center
02:21PM 44.8820 -93.2218 90° East  Level Estimated
02:28PM 44.8820 -93.2218 90° East  Level Estimated